Time;durP1;ratioP1;P1;durP2;ratioP2;P2;SDS_P1;SDS_P2;PMS_P1;PMS_P2;Temp;Humidity;BMP_temperature;BMP_pressure;BME280_temperature;BME280_humidity;BME280_pressure;Samples;Min_cycle;Max_cycle;Signal;HPM_P1;HPM_P2
2021/11/08 00:01:29;;;;;;;14.83;4.93;;;;;;;;;;5023176;28;20677;-77
2021/11/08 00:03:54;;;;;;;12.13;4.57;;;;;;;;;;5010684;28;20178;-77
2021/11/08 00:06:19;;;;;;;14.83;4.20;;;;;;;;;;5026546;28;20210;-77
2021/11/08 00:08:45;;;;;;;10.30;4.33;;;;;;;;;;5030515;28;20741;-76
2021/11/08 00:11:11;;;;;;;16.90;4.27;;;;;;;;;;5011262;28;20216;-76
2021/11/08 00:13:37;;;;;;;18.60;4.30;;;;;;;;;;5027321;28;20836;-77
2021/11/08 00:18:48;;;;;;;12.83;3.63;;;;;;;;;;5031981;28;20647;-76
2021/11/08 00:21:17;;;;;;;10.50;3.40;;;;;;;;;;5009560;28;20173;-78
2021/11/08 00:23:43;;;;;;;14.83;3.57;;;;;;;;;;5027702;28;22296;-76
2021/11/08 00:26:08;;;;;;;16.67;3.20;;;;;;;;;;5028548;28;20213;-78
2021/11/08 00:28:33;;;;;;;9.73;3.37;;;;;;;;;;5028061;28;20192;-76
2021/11/08 00:30:58;;;;;;;15.50;3.50;;;;;;;;;;5027193;28;20205;-76
2021/11/08 00:33:24;;;;;;;10.00;4.47;;;;;;;;;;5010049;28;20181;-76
2021/11/08 00:35:50;;;;;;;15.37;3.13;;;;;;;;;;5026606;28;20240;-76
2021/11/08 00:38:16;;;;;;;11.30;3.07;;;;;;;;;;5025726;28;20556;-76
2021/11/08 00:40:42;;;;;;;16.03;2.90;;;;;;;;;;5026815;28;20178;-76
2021/11/08 00:43:08;;;;;;;9.60;3.60;;;;;;;;;;5026447;28;20182;-76
2021/11/08 00:45:34;;;;;;;7.60;3.90;;;;;;;;;;5030377;28;20823;-78
2021/11/08 00:48:00;;;;;;;9.47;4.43;;;;;;;;;;5025674;28;20216;-76
2021/11/08 00:50:26;;;;;;;15.27;3.27;;;;;;;;;;5025412;28;20186;-76
2021/11/08 00:52:51;;;;;;;11.90;3.73;;;;;;;;;;5013888;28;20173;-76
2021/11/08 00:55:17;;;;;;;11.27;3.47;;;;;;;;;;5032887;28;20699;-76
2021/11/08 00:57:45;;;;;;;8.50;2.90;;;;;;;;;;5013853;28;20564;-77
2021/11/08 01:00:17;;;;;;;11.37;3.60;;;;;;;;;;5039071;28;20312;-77
2021/11/08 01:02:43;;;;;;;11.57;3.37;;;;;;;;;;5026181;28;20174;-77
2021/11/08 01:05:09;;;;;;;13.57;3.83;;;;;;;;;;5016153;28;20193;-76
2021/11/08 01:07:35;;;;;;;10.17;3.53;;;;;;;;;;5024500;28;20178;-77
2021/11/08 01:10:00;;;;;;;10.20;3.30;;;;;;;;;;5008540;28;20186;-77
2021/11/08 01:12:26;;;;;;;13.00;3.97;;;;;;;;;;5025709;28;20641;-77
2021/11/08 01:14:54;;;;;;;18.90;5.30;;;;;;;;;;5028157;28;20170;-76
2021/11/08 01:17:20;;;;;;;15.80;3.63;;;;;;;;;;5030290;28;20860;-78
2021/11/08 01:19:46;;;;;;;11.50;4.17;;;;;;;;;;5027261;28;20178;-77
2021/11/08 01:22:19;;;;;;;18.77;3.67;;;;;;;;;;5024938;28;20752;-77
2021/11/08 01:24:52;;;;;;;19.70;3.77;;;;;;;;;;5010979;28;20285;-77
2021/11/08 01:27:17;;;;;;;14.97;4.00;;;;;;;;;;5010687;28;20185;-78
2021/11/08 01:29:42;;;;;;;18.37;4.63;;;;;;;;;;5028812;28;20196;-78
2021/11/08 01:32:10;;;;;;;12.10;3.40;;;;;;;;;;5010223;28;20232;-76
2021/11/08 01:34:35;;;;;;;17.27;4.07;;;;;;;;;;5025397;28;20189;-75
2021/11/08 01:37:01;;;;;;;18.77;3.60;;;;;;;;;;5027065;28;20206;-76
2021/11/08 01:39:36;;;;;;;13.63;4.53;;;;;;;;;;5024806;28;20186;-76
2021/11/08 01:42:06;;;;;;;13.87;3.40;;;;;;;;;;5009485;28;20181;-76
2021/11/08 01:44:31;;;;;;;16.27;3.93;;;;;;;;;;5008355;28;20631;-76
2021/11/08 01:46:57;;;;;;;10.40;3.67;;;;;;;;;;5008913;28;20197;-76
2021/11/08 01:49:22;;;;;;;17.80;4.80;;;;;;;;;;5024243;28;20601;-76
2021/11/08 01:51:48;;;;;;;13.47;3.43;;;;;;;;;;5025824;28;20205;-76
2021/11/08 01:54:13;;;;;;;14.73;3.30;;;;;;;;;;5034044;28;20192;-76
2021/11/08 01:56:38;;;;;;;17.07;4.23;;;;;;;;;;5034191;28;20206;-76
2021/11/08 01:59:04;;;;;;;12.33;3.80;;;;;;;;;;5042787;28;20530;-76
2021/11/08 02:01:29;;;;;;;13.23;2.93;;;;;;;;;;5050561;28;20715;-76
2021/11/08 02:03:54;;;;;;;18.40;3.80;;;;;;;;;;5032615;28;20747;-76
2021/11/08 02:06:20;;;;;;;12.17;3.80;;;;;;;;;;5012310;28;20240;-76
2021/11/08 02:08:45;;;;;;;16.87;4.37;;;;;;;;;;5029299;28;20330;-76
2021/11/08 02:11:11;;;;;;;12.53;3.17;;;;;;;;;;5031661;28;20240;-76
2021/11/08 02:13:37;;;;;;;15.93;3.67;;;;;;;;;;5031080;28;20205;-76
2021/11/08 02:16:03;;;;;;;12.47;3.20;;;;;;;;;;5030162;28;20342;-77
2021/11/08 02:18:28;;;;;;;16.60;3.30;;;;;;;;;;5034904;28;20570;-76
2021/11/08 02:20:53;;;;;;;14.23;3.37;;;;;;;;;;5013054;28;20193;-77
2021/11/08 02:23:20;;;;;;;13.47;2.97;;;;;;;;;;5029710;28;20185;-76
2021/11/08 02:25:48;;;;;;;18.87;3.47;;;;;;;;;;5014708;28;20225;-76
2021/11/08 02:28:13;;;;;;;10.60;3.10;;;;;;;;;;5028337;28;20192;-76
2021/11/08 02:30:39;;;;;;;13.37;3.10;;;;;;;;;;5029309;28;20221;-77
2021/11/08 02:33:08;;;;;;;14.63;3.50;;;;;;;;;;5029383;28;20182;-75
2021/11/08 02:35:35;;;;;;;14.50;3.60;;;;;;;;;;5031602;28;20241;-76
2021/11/08 02:38:00;;;;;;;15.17;3.70;;;;;;;;;;5028249;28;20190;-76
2021/11/08 02:40:28;;;;;;;11.97;3.07;;;;;;;;;;5029620;28;20188;-76
2021/11/08 02:42:56;;;;;;;14.47;3.47;;;;;;;;;;5028936;28;20190;-76
2021/11/08 02:45:22;;;;;;;18.77;4.20;;;;;;;;;;5014146;28;20567;-76
2021/11/08 02:47:48;;;;;;;10.90;4.13;;;;;;;;;;5027171;28;20184;-76
2021/11/08 02:50:14;;;;;;;14.33;4.07;;;;;;;;;;5028979;28;20186;-76
2021/11/08 02:52:40;;;;;;;17.30;3.80;;;;;;;;;;5028113;28;20288;-76
2021/11/08 02:55:05;;;;;;;13.73;3.37;;;;;;;;;;5030085;28;20242;-77
2021/11/08 02:57:31;;;;;;;11.03;3.20;;;;;;;;;;5011715;28;20217;-76
2021/11/08 03:00:01;;;;;;;15.30;4.87;;;;;;;;;;5020617;28;20184;-76
2021/11/08 03:02:26;;;;;;;15.70;3.80;;;;;;;;;;5026478;28;20186;-77
2021/11/08 03:04:53;;;;;;;18.27;3.83;;;;;;;;;;5011182;28;20203;-77
2021/11/08 03:07:20;;;;;;;17.70;4.97;;;;;;;;;;5027230;28;20189;-77
2021/11/08 03:09:49;;;;;;;13.37;3.70;;;;;;;;;;5028444;28;20264;-77
2021/11/08 03:12:16;;;;;;;11.40;3.63;;;;;;;;;;5012128;28;20738;-77
2021/11/08 03:14:47;;;;;;;19.87;4.07;;;;;;;;;;5030007;28;20619;-76
2021/11/08 03:17:16;;;;;;;15.27;3.83;;;;;;;;;;5007158;28;20170;-76
2021/11/08 03:19:43;;;;;;;17.60;3.97;;;;;;;;;;5031771;28;20554;-76
2021/11/08 03:22:12;;;;;;;13.83;3.63;;;;;;;;;;5027435;28;20182;-76
2021/11/08 03:24:39;;;;;;;13.30;4.10;;;;;;;;;;5027269;28;20262;-76
2021/11/08 03:27:22;;;;;;;19.90;6.07;;;;;;;;;;5017868;28;20199;-76
2021/11/08 03:29:47;;;;;;;17.70;4.80;;;;;;;;;;5013070;28;20726;-76
2021/11/08 03:32:17;;;;;;;16.40;4.47;;;;;;;;;;5028007;28;20215;-76
2021/11/08 03:35:04;;;;;;;17.87;4.80;;;;;;;;;;5026990;28;20186;-76
2021/11/08 03:37:35;;;;;;;20.77;4.93;;;;;;;;;;5027484;28;20178;-76
2021/11/08 03:40:01;;;;;;;18.37;4.57;;;;;;;;;;5026360;28;20193;-76
2021/11/08 03:42:28;;;;;;;15.23;3.77;;;;;;;;;;5027148;28;20379;-76
2021/11/08 03:44:53;;;;;;;18.33;4.07;;;;;;;;;;5027008;28;20186;-76
2021/11/08 03:47:18;;;;;;;23.30;4.70;;;;;;;;;;5027145;28;20791;-76
2021/11/08 03:49:44;;;;;;;12.97;4.60;;;;;;;;;;5026308;28;20177;-76
2021/11/08 03:52:09;;;;;;;10.77;4.20;;;;;;;;;;5028391;28;20224;-76
2021/11/08 03:54:34;;;;;;;22.20;5.13;;;;;;;;;;5010954;28;20182;-76
2021/11/08 03:56:59;;;;;;;20.43;4.90;;;;;;;;;;5011356;28;21883;-76
2021/11/08 03:59:25;;;;;;;18.83;5.27;;;;;;;;;;5025575;28;21883;-76
2021/11/08 04:01:50;;;;;;;19.50;4.70;;;;;;;;;;5029253;28;20437;-76
2021/11/08 04:04:15;;;;;;;16.67;5.30;;;;;;;;;;5009605;28;20563;-76
2021/11/08 04:06:44;;;;;;;12.03;4.40;;;;;;;;;;5026135;28;20315;-76
2021/11/08 04:09:12;;;;;;;19.90;5.00;;;;;;;;;;5011351;28;21612;-76
2021/11/08 04:11:38;;;;;;;19.07;5.83;;;;;;;;;;5026408;28;20800;-76
2021/11/08 04:14:03;;;;;;;17.73;5.93;;;;;;;;;;5023936;28;20190;-76
2021/11/08 04:16:30;;;;;;;14.47;4.93;;;;;;;;;;5025359;28;20241;-76
2021/11/08 04:18:57;;;;;;;19.80;5.13;;;;;;;;;;5030399;28;20185;-76
2021/11/08 04:21:23;;;;;;;19.43;6.37;;;;;;;;;;5024753;28;20178;-76
2021/11/08 04:23:49;;;;;;;28.60;5.97;;;;;;;;;;5009294;28;22375;-76
2021/11/08 04:26:19;;;;;;;12.03;5.20;;;;;;;;;;5013214;28;20290;-76
2021/11/08 04:28:56;;;;;;;22.57;4.97;;;;;;;;;;5025664;28;20177;-76
2021/11/08 04:31:22;;;;;;;14.27;4.87;;;;;;;;;;5026128;28;20213;-76
2021/11/08 04:33:50;;;;;;;15.83;6.40;;;;;;;;;;5026500;28;20183;-76
2021/11/08 04:41:48;;;;;;;22.13;7.00;;;;;;;;;;4969767;28;20883;-76
2021/11/08 04:51:55;;;;;;;18.17;6.83;;;;;;;;;;5035331;28;20217;-76
2021/11/08 04:54:34;;;;;;;16.00;6.30;;;;;;;;;;5026699;28;21264;-76
2021/11/08 05:24:36;;;;;;;19.57;6.50;;;;;;;;;;4964756;28;20333;-77
2021/11/08 05:32:24;;;;;;;24.27;7.20;;;;;;;;;;5025646;28;20283;-75
2021/11/08 05:34:51;;;;;;;22.40;7.80;;;;;;;;;;5027567;28;20264;-75
2021/11/08 05:37:16;;;;;;;21.10;6.27;;;;;;;;;;5011218;28;20178;-78
2021/11/08 05:39:48;;;;;;;19.97;6.67;;;;;;;;;;5029119;28;20185;-76
2021/11/08 05:42:13;;;;;;;22.70;7.13;;;;;;;;;;5029088;28;20186;-76
2021/11/08 05:44:40;;;;;;;23.73;6.67;;;;;;;;;;5029749;28;20827;-75
2021/11/08 05:47:06;;;;;;;17.97;6.30;;;;;;;;;;5012863;28;20186;-76
2021/11/08 05:49:31;;;;;;;20.33;7.07;;;;;;;;;;5011697;28;20592;-77
2021/11/08 05:51:57;;;;;;;21.00;6.43;;;;;;;;;;5012707;28;20224;-77
2021/11/08 05:54:22;;;;;;;16.10;6.93;;;;;;;;;;5030409;28;20235;-75
2021/11/08 06:50:58;;;;;;;22.90;7.93;;;;;;;;;;5028316;28;20217;-76
2021/11/08 06:53:23;;;;;;;20.43;7.33;;;;;;;;;;5028019;28;20209;-76
2021/11/08 06:55:51;;;;;;;22.43;7.90;;;;;;;;;;5028676;28;20670;-76
2021/11/08 06:58:18;;;;;;;29.03;7.23;;;;;;;;;;5014332;28;20177;-76
2021/11/08 07:00:45;;;;;;;21.90;6.60;;;;;;;;;;5009864;28;20200;-76
2021/11/08 07:03:10;;;;;;;21.10;7.70;;;;;;;;;;5027711;28;20310;-76
2021/11/08 07:05:35;;;;;;;24.83;6.63;;;;;;;;;;5026895;28;20186;-76
2021/11/08 07:08:01;;;;;;;24.53;6.67;;;;;;;;;;5028481;28;20823;-76
2021/11/08 07:10:26;;;;;;;18.37;6.23;;;;;;;;;;5024696;28;20227;-76
2021/11/08 07:12:52;;;;;;;21.13;7.10;;;;;;;;;;5009649;28;20210;-77
2021/11/08 07:15:19;;;;;;;24.73;5.90;;;;;;;;;;5026741;28;20259;-77
2021/11/08 07:17:45;;;;;;;26.13;6.00;;;;;;;;;;5029345;28;20231;-76
2021/11/08 07:20:10;;;;;;;19.03;6.47;;;;;;;;;;5019757;28;20646;-77
2021/11/08 07:22:35;;;;;;;23.43;6.23;;;;;;;;;;5031330;28;20186;-76
2021/11/08 07:25:01;;;;;;;26.07;6.77;;;;;;;;;;5046864;28;20201;-76
2021/11/08 07:27:26;;;;;;;23.50;5.97;;;;;;;;;;5048486;28;20193;-75
2021/11/08 07:29:52;;;;;;;17.20;5.57;;;;;;;;;;5050257;28;20177;-75
2021/11/08 07:32:17;;;;;;;20.87;5.07;;;;;;;;;;5032669;28;20213;-75
2021/11/08 07:34:42;;;;;;;23.43;6.00;;;;;;;;;;5049255;28;20181;-76
2021/11/08 07:37:07;;;;;;;18.07;6.17;;;;;;;;;;5030110;28;20178;-77
2021/11/08 07:39:33;;;;;;;22.83;5.53;;;;;;;;;;5030196;28;20186;-76
2021/11/08 07:41:58;;;;;;;26.50;5.97;;;;;;;;;;5051336;28;20213;-76
2021/11/08 07:44:23;;;;;;;14.33;4.37;;;;;;;;;;5047836;28;20268;-76
2021/11/08 07:46:48;;;;;;;18.20;4.93;;;;;;;;;;5046188;28;20202;-76
2021/11/08 07:49:13;;;;;;;17.67;5.00;;;;;;;;;;5045151;28;20253;-76
2021/11/08 07:51:39;;;;;;;20.13;4.77;;;;;;;;;;5046867;28;20654;-76
2021/11/08 07:54:04;;;;;;;18.50;4.83;;;;;;;;;;5043250;28;20170;-76
2021/11/08 07:56:29;;;;;;;13.83;5.10;;;;;;;;;;5039591;28;20194;-76
2021/11/08 07:58:54;;;;;;;14.97;4.47;;;;;;;;;;5042818;28;20180;-76
2021/11/08 08:01:20;;;;;;;22.57;5.73;;;;;;;;;;5031847;28;20592;-76
2021/11/08 08:03:46;;;;;;;17.27;6.33;;;;;;;;;;5046723;28;20185;-76
2021/11/08 08:06:12;;;;;;;17.97;5.90;;;;;;;;;;5048147;28;20529;-76
2021/11/08 08:08:37;;;;;;;22.90;6.23;;;;;;;;;;5029758;28;20178;-76
2021/11/08 08:11:04;;;;;;;22.23;5.63;;;;;;;;;;5050824;28;20710;-76
2021/11/08 08:13:29;;;;;;;14.13;4.73;;;;;;;;;;5048158;28;20260;-76
2021/11/08 08:15:58;;;;;;;19.10;5.23;;;;;;;;;;5042301;28;20365;-76
2021/11/08 08:18:24;;;;;;;15.80;5.43;;;;;;;;;;5040304;28;20270;-75
2021/11/08 08:20:49;;;;;;;13.10;4.60;;;;;;;;;;5028803;28;20307;-76
2021/11/08 08:23:14;;;;;;;14.20;4.17;;;;;;;;;;5029707;28;20640;-75
2021/11/08 08:25:40;;;;;;;18.13;4.50;;;;;;;;;;5027207;28;20271;-76
2021/11/08 08:28:05;;;;;;;19.63;4.50;;;;;;;;;;5029626;28;20170;-75
2021/11/08 08:30:30;;;;;;;16.17;4.33;;;;;;;;;;5027483;28;20277;-78
2021/11/08 08:32:55;;;;;;;15.03;5.33;;;;;;;;;;5026692;28;21579;-76
2021/11/08 08:35:21;;;;;;;13.13;4.37;;;;;;;;;;5036456;28;20194;-76
2021/11/08 08:37:47;;;;;;;15.23;4.60;;;;;;;;;;5028179;28;20185;-76
2021/11/08 08:40:12;;;;;;;19.43;4.57;;;;;;;;;;5026525;28;20255;-76
2021/11/08 08:42:38;;;;;;;26.27;5.03;;;;;;;;;;5012498;28;20193;-77
2021/11/08 08:45:04;;;;;;;12.60;3.93;;;;;;;;;;5026058;28;20225;-76
2021/11/08 08:47:29;;;;;;;13.80;4.27;;;;;;;;;;5029117;28;20181;-76
2021/11/08 08:49:54;;;;;;;10.87;3.30;;;;;;;;;;5028309;28;20174;-76
2021/11/08 08:52:20;;;;;;;9.27;3.50;;;;;;;;;;5025486;28;20649;-76
2021/11/08 08:54:45;;;;;;;14.07;4.13;;;;;;;;;;5027900;28;20170;-76
2021/11/08 08:57:11;;;;;;;13.13;3.60;;;;;;;;;;5020116;28;20174;-76
2021/11/08 08:59:37;;;;;;;11.87;3.63;;;;;;;;;;5027817;28;20166;-76
2021/11/08 09:02:02;;;;;;;10.67;3.63;;;;;;;;;;5027811;28;20200;-76
2021/11/08 09:04:28;;;;;;;11.93;3.63;;;;;;;;;;5011350;28;20662;-77
2021/11/08 09:06:53;;;;;;;11.60;4.53;;;;;;;;;;5023241;28;20201;-76
2021/11/08 09:09:18;;;;;;;10.93;3.60;;;;;;;;;;5030289;28;20552;-76
2021/11/08 09:11:44;;;;;;;18.90;3.93;;;;;;;;;;5030553;28;20211;-76
2021/11/08 09:14:09;;;;;;;15.17;4.10;;;;;;;;;;5031543;28;20181;-77
2021/11/08 09:16:34;;;;;;;13.93;3.97;;;;;;;;;;5028922;28;20691;-77
2021/11/08 09:19:00;;;;;;;20.17;5.70;;;;;;;;;;5031520;28;20178;-76
2021/11/08 09:21:27;;;;;;;14.73;4.30;;;;;;;;;;5015560;28;20189;-77
2021/11/08 09:23:53;;;;;;;14.83;4.80;;;;;;;;;;5032290;28;20173;-76
2021/11/08 09:26:19;;;;;;;16.27;5.50;;;;;;;;;;5015803;28;20736;-76
2021/11/08 09:28:44;;;;;;;16.60;6.00;;;;;;;;;;5016392;28;20185;-76
2021/11/08 09:31:09;;;;;;;12.83;4.40;;;;;;;;;;5031463;28;20205;-76
2021/11/08 09:33:35;;;;;;;25.27;6.03;;;;;;;;;;5015361;28;20793;-76
2021/11/08 09:36:05;;;;;;;16.90;5.27;;;;;;;;;;5017062;28;20759;-76
2021/11/08 09:38:30;;;;;;;14.80;4.93;;;;;;;;;;5011383;28;20177;-76
2021/11/08 09:40:56;;;;;;;13.77;4.23;;;;;;;;;;5031813;28;20238;-76
2021/11/08 09:43:23;;;;;;;14.53;5.03;;;;;;;;;;5030219;28;20188;-77
2021/11/08 09:45:49;;;;;;;13.53;5.00;;;;;;;;;;5032510;28;20293;-76
2021/11/08 09:48:14;;;;;;;15.07;4.10;;;;;;;;;;5030107;28;20194;-76
2021/11/08 09:50:41;;;;;;;11.83;4.40;;;;;;;;;;5035292;28;20286;-76
2021/11/08 09:53:08;;;;;;;16.30;4.35;;;;;;;;;;5034534;28;20665;-76
2021/11/08 09:55:33;;;;;;;10.23;4.30;;;;;;;;;;5031006;28;20219;-76
2021/11/08 09:58:00;;;;;;;15.00;4.53;;;;;;;;;;5031949;28;20182;-76
2021/11/08 10:00:34;;;;;;;34.60;5.93;;;;;;;;;;5029778;28;20742;-76
2021/11/08 10:03:01;;;;;;;13.23;4.78;;;;;;;;;;5011252;28;20185;-76
2021/11/08 10:05:28;;;;;;;11.77;4.10;;;;;;;;;;5030764;28;20288;-77
2021/11/08 10:07:53;;;;;;;15.05;4.50;;;;;;;;;;5032406;28;20181;-77
2021/11/08 10:10:18;;;;;;;17.27;5.03;;;;;;;;;;5038581;28;20193;-78
2021/11/08 10:12:46;;;;;;;18.77;4.32;;;;;;;;;;5015214;28;20301;-78
2021/11/08 10:15:11;;;;;;;12.85;4.13;;;;;;;;;;5033322;28;20209;-78
2021/11/08 10:17:36;;;;;;;9.05;4.40;;;;;;;;;;5033308;28;20174;-77
2021/11/08 10:20:02;;;;;;;12.75;4.60;;;;;;;;;;5014952;28;20916;-77
2021/11/08 10:22:30;;;;;;;13.57;5.25;;;;;;;;;;5029546;28;20280;-77
2021/11/08 10:24:56;;;;;;;13.52;4.00;;;;;;;;;;5031043;28;20631;-78
2021/11/08 10:27:22;;;;;;;16.17;5.65;;;;;;;;;;5035795;28;20194;-78
2021/11/08 10:29:47;;;;;;;11.85;3.85;;;;;;;;;;5015481;28;20231;-77
2021/11/08 10:32:13;;;;;;;11.85;4.07;;;;;;;;;;5013036;28;20237;-77
2021/11/08 10:34:47;;;;;;;15.50;4.78;;;;;;;;;;5032708;28;20179;-76
2021/11/08 10:37:21;;;;;;;16.70;5.38;;;;;;;;;;5024323;28;20268;-75
2021/11/08 10:39:46;;;;;;;18.30;4.57;;;;;;;;;;5015565;28;20264;-78
2021/11/08 10:42:20;;;;;;;21.30;4.75;;;;;;;;;;5030753;28;20184;-78
2021/11/08 10:44:45;;;;;;;14.63;4.05;;;;;;;;;;5011357;28;20181;-77
2021/11/08 10:47:11;;;;;;;14.73;4.35;;;;;;;;;;5012754;28;20635;-76
2021/11/08 10:49:38;;;;;;;13.48;4.07;;;;;;;;;;5032430;28;20182;-76
2021/11/08 10:52:03;;;;;;;15.63;4.85;;;;;;;;;;5031752;28;20296;-78
2021/11/08 10:54:41;;;;;;;19.63;5.93;;;;;;;;;;5026898;28;20502;-76
2021/11/08 10:57:08;;;;;;;11.48;3.97;;;;;;;;;;5034442;28;20251;-76
2021/11/08 10:59:35;;;;;;;16.00;4.32;;;;;;;;;;5027693;28;22301;-76
2021/11/08 11:02:01;;;;;;;23.60;6.50;;;;;;;;;;5032425;28;20315;-78
2021/11/08 11:04:33;;;;;;;13.57;3.72;;;;;;;;;;5017850;28;20174;-77
2021/11/08 11:06:58;;;;;;;14.40;4.50;;;;;;;;;;5015957;28;20285;-77
2021/11/08 11:09:28;;;;;;;16.10;5.55;;;;;;;;;;5039513;28;20725;-78
2021/11/08 11:12:08;;;;;;;12.30;4.53;;;;;;;;;;5032477;28;20228;-78
2021/11/08 11:14:38;;;;;;;13.77;4.75;;;;;;;;;;5034611;28;20223;-78
2021/11/08 11:17:10;;;;;;;13.05;4.53;;;;;;;;;;5039864;28;20202;-77
2021/11/08 11:19:36;;;;;;;14.38;4.57;;;;;;;;;;5030194;28;20236;-75
2021/11/08 11:22:04;;;;;;;13.18;4.40;;;;;;;;;;5031263;28;20181;-78
2021/11/08 11:24:43;;;;;;;16.50;4.05;;;;;;;;;;5004420;28;20190;-76
2021/11/08 11:27:16;;;;;;;15.02;4.63;;;;;;;;;;5016018;28;20228;-76
2021/11/08 11:29:41;;;;;;;18.02;5.10;;;;;;;;;;5027236;28;20189;-76
2021/11/08 11:32:17;;;;;;;14.07;4.30;;;;;;;;;;5027601;28;20214;-76
2021/11/08 11:34:42;;;;;;;12.88;4.13;;;;;;;;;;5028305;28;20181;-75
2021/11/08 11:37:11;;;;;;;13.25;4.47;;;;;;;;;;5026695;28;20181;-75
2021/11/08 11:39:37;;;;;;;18.38;5.10;;;;;;;;;;5027806;28;20189;-76
2021/11/08 11:42:02;;;;;;;15.00;4.00;;;;;;;;;;5012668;28;20182;-78
2021/11/08 11:44:27;;;;;;;16.48;3.85;;;;;;;;;;5025744;28;20182;-77
2021/11/08 11:46:54;;;;;;;16.27;5.15;;;;;;;;;;5027642;28;20666;-77
2021/11/08 11:49:19;;;;;;;11.70;4.22;;;;;;;;;;5026202;28;20674;-77
2021/11/08 11:51:48;;;;;;;12.13;4.32;;;;;;;;;;5012834;28;20214;-77
2021/11/08 11:54:14;;;;;;;11.35;3.92;;;;;;;;;;5026707;28;20715;-77
2021/11/08 11:56:40;;;;;;;14.65;4.10;;;;;;;;;;5011634;28;20563;-77
2021/11/08 11:59:06;;;;;;;16.15;3.22;;;;;;;;;;5025474;28;20731;-78
2021/11/08 12:01:33;;;;;;;18.77;4.35;;;;;;;;;;5009980;28;20402;-75
2021/11/08 12:03:58;;;;;;;11.48;3.35;;;;;;;;;;5027393;28;20193;-78
2021/11/08 12:06:28;;;;;;;11.65;3.40;;;;;;;;;;5026429;28;20229;-78
2021/11/08 12:08:55;;;;;;;16.27;3.90;;;;;;;;;;5026787;28;20196;-77
2021/11/08 12:11:26;;;;;;;11.18;3.45;;;;;;;;;;5000465;28;20205;-76
2021/11/08 12:13:56;;;;;;;9.90;3.00;;;;;;;;;;5026672;28;20621;-76
2021/11/08 12:16:26;;;;;;;9.82;3.45;;;;;;;;;;5009266;28;20287;-76
2021/11/08 12:18:51;;;;;;;16.40;3.22;;;;;;;;;;5032998;28;20177;-75
2021/11/08 12:21:24;;;;;;;12.38;3.08;;;;;;;;;;5011569;28;20185;-75
2021/11/08 12:23:50;;;;;;;13.25;3.00;;;;;;;;;;5032115;28;22105;-75
2021/11/08 12:26:19;;;;;;;22.80;4.20;;;;;;;;;;5033856;28;20215;-75
2021/11/08 12:28:47;;;;;;;21.65;3.92;;;;;;;;;;5014201;28;20189;-76
2021/11/08 12:31:17;;;;;;;14.73;3.28;;;;;;;;;;5033700;28;21544;-77
2021/11/08 12:33:42;;;;;;;10.63;3.20;;;;;;;;;;5027495;28;20181;-77
2021/11/08 12:36:10;;;;;;;9.65;3.08;;;;;;;;;;5032224;28;20201;-77
2021/11/08 12:38:37;;;;;;;16.48;3.78;;;;;;;;;;5026727;28;20181;-77
2021/11/08 12:41:07;;;;;;;10.20;3.20;;;;;;;;;;5028228;28;20205;-78
2021/11/08 12:43:33;;;;;;;13.88;3.20;;;;;;;;;;5028951;28;20188;-75
2021/11/08 12:46:12;;;;;;;11.45;3.58;;;;;;;;;;5024313;28;20201;-76
2021/11/08 12:48:37;;;;;;;13.90;3.63;;;;;;;;;;5026981;28;20803;-76
2021/11/08 12:51:03;;;;;;;12.40;2.88;;;;;;;;;;5020818;28;20177;-76
2021/11/08 12:53:30;;;;;;;14.10;3.17;;;;;;;;;;5030042;28;20298;-76
2021/11/08 12:55:57;;;;;;;14.18;3.47;;;;;;;;;;5028151;28;20197;-77
2021/11/08 12:58:40;;;;;;;13.93;3.22;;;;;;;;;;5031285;28;20259;-76
2021/11/08 13:01:08;;;;;;;6.82;2.50;;;;;;;;;;5013486;28;20208;-75
2021/11/08 13:03:40;;;;;;;9.93;2.88;;;;;;;;;;5010131;28;20177;-75
2021/11/08 13:06:08;;;;;;;9.13;2.30;;;;;;;;;;5026723;28;20753;-75
2021/11/08 13:08:33;;;;;;;13.57;3.67;;;;;;;;;;5025272;28;20186;-76
2021/11/08 13:11:10;;;;;;;15.73;2.70;;;;;;;;;;5030109;28;20925;-78
2021/11/08 13:13:35;;;;;;;20.75;3.25;;;;;;;;;;5026671;28;22378;-75
2021/11/08 13:16:11;;;;;;;10.35;3.03;;;;;;;;;;5025580;28;20205;-77
2021/11/08 13:18:41;;;;;;;10.65;2.95;;;;;;;;;;5017524;28;20185;-77
2021/11/08 13:21:07;;;;;;;15.05;2.97;;;;;;;;;;5011162;28;20185;-77
2021/11/08 13:23:34;;;;;;;10.57;2.75;;;;;;;;;;5026502;28;20682;-77
2021/11/08 13:26:00;;;;;;;10.75;3.13;;;;;;;;;;5023102;28;20209;-77
2021/11/08 13:28:26;;;;;;;10.52;2.72;;;;;;;;;;5031004;28;20196;-77
2021/11/08 13:30:53;;;;;;;11.48;3.35;;;;;;;;;;5029035;28;20691;-77
2021/11/08 13:33:20;;;;;;;8.80;2.40;;;;;;;;;;5022184;28;20190;-77
2021/11/08 13:35:48;;;;;;;8.57;2.08;;;;;;;;;;5028126;28;20201;-77
2021/11/08 13:38:19;;;;;;;9.73;2.40;;;;;;;;;;5027830;28;20177;-77
2021/11/08 13:40:54;;;;;;;10.90;2.45;;;;;;;;;;5020895;28;20181;-77
2021/11/08 13:43:21;;;;;;;10.73;2.72;;;;;;;;;;5028402;28;20194;-78
2021/11/08 13:45:49;;;;;;;11.32;3.40;;;;;;;;;;5013291;28;20220;-77
2021/11/08 13:48:35;;;;;;;7.55;2.30;;;;;;;;;;5029581;28;20202;-77
2021/11/08 13:51:02;;;;;;;14.30;2.97;;;;;;;;;;5026791;28;20376;-78
2021/11/08 13:53:32;;;;;;;10.15;3.25;;;;;;;;;;5030186;28;20189;-76
2021/11/08 13:56:00;;;;;;;11.80;3.53;;;;;;;;;;5030362;28;20202;-77
2021/11/08 13:58:25;;;;;;;14.70;3.47;;;;;;;;;;5036373;28;20495;-76
2021/11/08 14:00:51;;;;;;;11.35;2.75;;;;;;;;;;5030930;28;20308;-77
2021/11/08 14:03:17;;;;;;;11.93;2.80;;;;;;;;;;5030920;28;20177;-77
2021/11/08 14:05:46;;;;;;;8.23;2.50;;;;;;;;;;5014211;28;20198;-77
2021/11/08 14:08:11;;;;;;;6.20;2.25;;;;;;;;;;5032202;28;20182;-78
2021/11/08 14:10:37;;;;;;;9.63;2.20;;;;;;;;;;5031132;28;20227;-77
2021/11/08 14:13:11;;;;;;;10.95;2.78;;;;;;;;;;5032999;28;20231;-77
2021/11/08 14:15:36;;;;;;;8.10;3.05;;;;;;;;;;5025763;28;20197;-77
2021/11/08 14:18:01;;;;;;;16.48;2.92;;;;;;;;;;5037881;28;20178;-77
2021/11/08 14:20:27;;;;;;;12.00;3.25;;;;;;;;;;5029746;28;20590;-77
2021/11/08 14:22:53;;;;;;;10.80;2.72;;;;;;;;;;5032709;28;20586;-77
2021/11/08 14:25:18;;;;;;;7.63;2.53;;;;;;;;;;5029387;28;20216;-77
2021/11/08 14:27:43;;;;;;;12.40;3.10;;;;;;;;;;5037963;28;20174;-77
2021/11/08 14:30:10;;;;;;;9.63;2.92;;;;;;;;;;5029365;28;21236;-77
2021/11/08 14:32:35;;;;;;;12.40;2.90;;;;;;;;;;5027443;28;20684;-76
2021/11/08 14:35:06;;;;;;;10.48;2.63;;;;;;;;;;5024081;28;20207;-77
2021/11/08 14:37:38;;;;;;;11.52;3.72;;;;;;;;;;5027585;28;20174;-78
2021/11/08 14:40:10;;;;;;;10.75;2.70;;;;;;;;;;5024188;28;20181;-76
2021/11/08 14:42:36;;;;;;;11.70;3.38;;;;;;;;;;5028674;28;20185;-76
2021/11/08 14:45:03;;;;;;;11.93;3.17;;;;;;;;;;5011652;28;20625;-76
2021/11/08 14:47:29;;;;;;;11.43;3.53;;;;;;;;;;5031292;28;21547;-76
2021/11/08 14:49:59;;;;;;;7.78;2.38;;;;;;;;;;5030813;28;20537;-77
2021/11/08 14:52:28;;;;;;;9.95;2.63;;;;;;;;;;5035180;28;20295;-77
2021/11/08 14:54:54;;;;;;;14.13;4.03;;;;;;;;;;5025229;28;21074;-78
2021/11/08 14:57:19;;;;;;;7.32;2.38;;;;;;;;;;5013485;28;20558;-77
2021/11/08 14:59:51;;;;;;;9.15;2.92;;;;;;;;;;5023849;28;20190;-77
2021/11/08 15:02:16;;;;;;;15.02;3.97;;;;;;;;;;5001633;28;20181;-76
2021/11/08 15:04:43;;;;;;;13.30;3.72;;;;;;;;;;5022763;28;20310;-77
2021/11/08 15:07:08;;;;;;;16.10;3.38;;;;;;;;;;5024748;28;20243;-77
2021/11/08 15:09:50;;;;;;;11.63;3.08;;;;;;;;;;5024563;28;20581;-77
2021/11/08 15:12:23;;;;;;;10.32;3.03;;;;;;;;;;5031142;28;20279;-77
2021/11/08 15:14:53;;;;;;;10.65;3.42;;;;;;;;;;5019880;28;20268;-77
2021/11/08 15:17:29;;;;;;;9.90;2.67;;;;;;;;;;5029693;28;20181;-75
2021/11/08 15:20:01;;;;;;;17.02;3.03;;;;;;;;;;5005279;28;20188;-76
2021/11/08 15:22:29;;;;;;;14.10;4.82;;;;;;;;;;5025982;28;20189;-75
2021/11/08 15:24:54;;;;;;;14.05;3.65;;;;;;;;;;5026509;28;20170;-75
2021/11/08 15:27:29;;;;;;;12.85;3.65;;;;;;;;;;5035083;28;20196;-75
2021/11/08 15:30:08;;;;;;;14.52;3.50;;;;;;;;;;5004484;28;20192;-75
2021/11/08 15:32:33;;;;;;;11.30;3.28;;;;;;;;;;5028364;28;20205;-76
2021/11/08 15:35:08;;;;;;;13.77;3.45;;;;;;;;;;5027172;28;20364;-76
2021/11/08 15:37:34;;;;;;;16.02;3.35;;;;;;;;;;5026440;28;20240;-75
2021/11/08 15:39:59;;;;;;;13.57;4.95;;;;;;;;;;5029896;28;20652;-75
2021/11/08 15:42:25;;;;;;;11.68;3.72;;;;;;;;;;5027463;28;20185;-75
2021/11/08 15:44:50;;;;;;;8.77;4.22;;;;;;;;;;5022754;28;20754;-77
2021/11/08 15:47:15;;;;;;;16.00;4.25;;;;;;;;;;5022810;28;20257;-76
2021/11/08 15:49:40;;;;;;;19.13;4.40;;;;;;;;;;5028418;28;20212;-76
2021/11/08 15:52:05;;;;;;;13.23;3.40;;;;;;;;;;5027159;28;20327;-75
2021/11/08 15:54:31;;;;;;;12.52;4.03;;;;;;;;;;5030056;28;20181;-76
2021/11/08 15:56:57;;;;;;;13.73;4.65;;;;;;;;;;5025802;28;20339;-77
2021/11/08 15:59:23;;;;;;;10.52;4.07;;;;;;;;;;5027315;28;20606;-77
2021/11/08 16:01:48;;;;;;;14.85;4.07;;;;;;;;;;5026383;28;20656;-78
2021/11/08 16:04:14;;;;;;;13.32;3.22;;;;;;;;;;5026919;28;20420;-78
2021/11/08 16:06:40;;;;;;;12.88;3.55;;;;;;;;;;5010116;28;20197;-78
2021/11/08 16:09:06;;;;;;;11.88;4.50;;;;;;;;;;5029280;28;20177;-77
2021/11/08 16:11:32;;;;;;;10.90;4.75;;;;;;;;;;5020270;28;20697;-77
2021/11/08 16:13:57;;;;;;;8.63;2.92;;;;;;;;;;5028835;28;20174;-76